createdAt,value
2019-03-08T00:00:16.630Z,2.03
2019-03-08T00:02:49.330Z,1.90
2019-03-08T00:05:21.563Z,2.40
2019-03-08T00:07:52.394Z,2.33
2019-03-08T00:10:23.343Z,2.47
2019-03-08T00:12:54.111Z,2.40
2019-03-08T00:15:25.181Z,2.10
2019-03-08T00:17:56.858Z,3.27
2019-03-08T00:20:27.719Z,3.00
2019-03-08T00:22:58.737Z,2.57
2019-03-08T00:28:11.852Z,3.03
2019-03-08T00:30:43.314Z,2.97
2019-03-08T00:33:14.348Z,2.70
2019-03-08T00:35:45.048Z,2.73
2019-03-08T00:38:15.891Z,2.80
2019-03-08T00:40:46.785Z,2.37
2019-03-08T00:43:17.706Z,2.70
2019-03-08T00:45:48.629Z,2.90
2019-03-08T00:48:19.382Z,2.77
2019-03-08T00:50:50.218Z,2.73
2019-03-08T00:53:21.336Z,3.40
2019-03-08T00:55:52.198Z,3.03
2019-03-08T00:58:23.030Z,3.00
2019-03-08T01:00:53.880Z,2.83
2019-03-08T01:03:24.913Z,4.07
2019-03-08T01:05:56.312Z,3.37
2019-03-08T01:08:27.200Z,3.37
2019-03-08T01:10:58.566Z,3.70
2019-03-08T01:13:29.797Z,3.67
2019-03-08T01:16:00.878Z,3.13
2019-03-08T01:18:31.869Z,3.57
2019-03-08T01:21:02.936Z,3.50
2019-03-08T01:23:33.659Z,3.47
2019-03-08T01:26:05.357Z,3.10
2019-03-08T01:28:37.463Z,3.80
2019-03-08T01:31:08.298Z,3.13
2019-03-08T01:33:39.246Z,3.37
2019-03-08T01:36:09.940Z,3.93
2019-03-08T01:38:40.786Z,3.73
2019-03-08T01:41:11.576Z,3.20
2019-03-08T01:43:42.538Z,3.43
2019-03-08T01:46:13.151Z,3.57
2019-03-08T01:48:43.738Z,3.00
2019-03-08T01:51:14.347Z,3.30
2019-03-08T01:53:44.874Z,2.77
2019-03-08T01:56:15.516Z,3.10
2019-03-08T01:58:46.139Z,3.20
2019-03-08T02:01:16.774Z,2.70
2019-03-08T02:03:47.368Z,3.10
2019-03-08T02:06:17.968Z,2.90
2019-03-08T02:08:48.559Z,3.10
2019-03-08T02:11:19.085Z,2.70
2019-03-08T02:13:49.577Z,3.20
2019-03-08T02:16:20.182Z,2.93
2019-03-08T02:18:50.766Z,3.13
2019-03-08T02:21:21.455Z,2.70
2019-03-08T02:23:52.036Z,3.53
2019-03-08T02:26:22.655Z,3.77
2019-03-08T02:28:53.249Z,3.60
2019-03-08T02:31:23.807Z,3.33
2019-03-08T02:33:54.692Z,4.10
2019-03-08T02:36:25.390Z,4.57
2019-03-08T02:38:57.002Z,3.63
2019-03-08T02:41:27.575Z,3.70
2019-03-08T02:43:58.124Z,3.33
2019-03-08T02:46:28.760Z,4.27
2019-03-08T02:48:59.341Z,4.00
2019-03-08T02:51:29.828Z,3.83
2019-03-08T02:54:00.514Z,3.80
2019-03-08T02:59:12.845Z,4.83
2019-03-08T03:04:32.891Z,4.73
2019-03-08T03:07:03.436Z,4.30
2019-03-08T03:09:35.030Z,4.87
2019-03-08T03:12:05.589Z,4.43
2019-03-08T03:14:36.228Z,4.27
2019-03-08T03:17:06.711Z,5.00
2019-03-08T03:19:38.375Z,4.63
2019-03-08T03:22:08.925Z,4.77
2019-03-08T03:24:39.592Z,4.37
2019-03-08T03:27:10.220Z,5.00
2019-03-08T03:29:40.753Z,4.43
2019-03-08T03:32:11.349Z,4.70
2019-03-08T03:34:41.944Z,5.37
2019-03-08T03:37:12.439Z,4.10
2019-03-08T03:39:42.995Z,4.90
2019-03-08T03:42:13.600Z,4.93
2019-03-08T03:44:44.304Z,4.57
2019-03-08T03:47:14.871Z,5.00
2019-03-08T03:49:45.396Z,4.97
2019-03-08T03:52:15.887Z,4.43
2019-03-08T03:54:46.456Z,4.53
2019-03-08T03:57:17.343Z,4.77
2019-03-08T03:59:47.867Z,4.33
2019-03-08T04:02:18.483Z,3.97
2019-03-08T04:04:49.094Z,4.20
2019-03-08T04:07:20.572Z,4.23
2019-03-08T04:09:51.471Z,4.07
2019-03-08T04:12:22.116Z,3.93
2019-03-08T04:14:53.679Z,3.80
2019-03-08T04:17:24.228Z,4.57
2019-03-08T04:19:54.807Z,4.03
2019-03-08T04:22:25.509Z,4.30
2019-03-08T04:24:56.124Z,4.47
2019-03-08T04:27:26.673Z,5.50
2019-03-08T04:29:57.253Z,4.80
2019-03-08T04:32:27.754Z,4.87
2019-03-08T04:34:58.543Z,4.60
2019-03-08T04:37:29.083Z,4.83
2019-03-08T04:39:59.675Z,4.87
2019-03-08T04:42:30.189Z,4.17
2019-03-08T04:45:00.813Z,4.40
2019-03-08T04:47:32.772Z,4.53
2019-03-08T04:50:03.468Z,4.43
2019-03-08T04:52:34.083Z,4.10
2019-03-08T04:55:04.839Z,4.70
2019-03-08T04:57:35.392Z,3.93
2019-03-08T05:00:06.754Z,4.77
2019-03-08T05:02:37.456Z,5.10
2019-03-08T05:05:08.316Z,7.27
2019-03-08T05:07:38.870Z,5.97
2019-03-08T05:10:11.656Z,4.73
2019-03-08T05:15:17.905Z,4.20
2019-03-08T05:17:48.413Z,4.97
2019-03-08T05:20:18.953Z,4.93
2019-03-08T05:22:49.555Z,8.10
2019-03-08T05:25:20.232Z,6.60
2019-03-08T05:27:50.792Z,4.47
2019-03-08T05:30:21.384Z,5.33
2019-03-08T05:32:51.964Z,5.70
2019-03-08T05:35:22.579Z,6.10
2019-03-08T05:37:53.347Z,5.43
2019-03-08T05:40:23.934Z,6.07
2019-03-08T05:42:54.508Z,5.00
2019-03-08T05:45:25.080Z,5.53
2019-03-08T05:47:55.660Z,5.33
2019-03-08T05:50:26.352Z,4.80
2019-03-08T05:52:56.981Z,4.50
2019-03-08T05:55:27.667Z,5.27
2019-03-08T05:57:58.221Z,5.17
2019-03-08T06:03:17.983Z,5.13
2019-03-08T06:05:48.520Z,5.80
2019-03-08T06:08:19.090Z,6.13
2019-03-08T06:10:49.621Z,6.57
2019-03-08T06:13:20.340Z,5.57
2019-03-08T06:15:50.954Z,6.67
2019-03-08T06:18:21.515Z,6.20
2019-03-08T06:20:52.071Z,5.67
2019-03-08T06:23:22.626Z,5.83
2019-03-08T06:25:53.168Z,5.17
2019-03-08T06:28:23.685Z,5.60
2019-03-08T06:30:54.240Z,6.73
2019-03-08T06:33:24.824Z,6.00
2019-03-08T06:35:55.340Z,5.93
2019-03-08T06:38:25.872Z,5.70
2019-03-08T06:40:56.658Z,5.17
2019-03-08T06:43:27.263Z,5.57
2019-03-08T06:45:57.852Z,6.23
2019-03-08T06:48:28.442Z,6.43
2019-03-08T06:50:58.978Z,6.23
2019-03-08T06:53:29.649Z,7.73
2019-03-08T06:56:00.159Z,6.97
2019-03-08T06:58:52.328Z,7.23
2019-03-08T07:01:28.593Z,7.93
2019-03-08T07:03:59.140Z,6.80
2019-03-08T07:06:29.689Z,7.10
2019-03-08T07:09:00.249Z,6.37
2019-03-08T07:11:30.873Z,5.77
2019-03-08T07:14:01.384Z,6.93
2019-03-08T07:16:31.962Z,5.97
2019-03-08T07:19:02.569Z,5.80
2019-03-08T07:21:51.714Z,5.43
2019-03-08T07:24:59.280Z,5.10
2019-03-08T07:28:03.653Z,4.50
2019-03-08T07:31:04.864Z,5.07
2019-03-08T07:33:54.651Z,6.23
2019-03-08T07:37:02.453Z,6.00
2019-03-08T07:42:34.939Z,5.43
2019-03-08T07:45:23.576Z,4.83
2019-03-08T07:48:14.707Z,4.83
2019-03-08T07:51:08.067Z,4.20
2019-03-08T07:53:51.313Z,4.70
2019-03-08T07:56:30.503Z,3.70
2019-03-08T07:59:23.069Z,4.33
2019-03-08T08:02:06.027Z,4.70
2019-03-08T08:04:58.574Z,4.00
2019-03-08T08:07:35.714Z,5.40
2019-03-08T08:13:13.937Z,5.37
2019-03-08T08:16:02.080Z,4.83
2019-03-08T08:18:52.444Z,6.37
2019-03-08T08:21:56.868Z,5.23
2019-03-08T08:24:58.281Z,5.23
2019-03-08T08:27:53.485Z,5.73
2019-03-08T08:30:43.001Z,5.17
2019-03-08T08:33:30.915Z,5.00
2019-03-08T08:36:08.600Z,5.37
2019-03-08T08:39:00.832Z,5.37
2019-03-08T08:41:54.654Z,5.60
2019-03-08T08:47:22.344Z,4.97
2019-03-08T08:50:03.380Z,4.70
2019-03-08T08:52:51.574Z,4.30
2019-03-08T08:55:43.841Z,4.23
2019-03-08T08:58:39.136Z,3.97
2019-03-08T09:01:28.467Z,3.60
2019-03-08T09:04:14.596Z,4.47
2019-03-08T09:07:02.876Z,4.03
2019-03-08T09:12:59.277Z,3.60
2019-03-08T09:15:40.000Z,3.40
2019-03-08T09:18:27.948Z,3.43
2019-03-08T09:21:16.372Z,3.10
2019-03-08T09:24:05.887Z,4.13
2019-03-08T09:26:59.394Z,3.13
2019-03-08T09:30:01.126Z,3.40
2019-03-08T09:32:47.647Z,3.77
2019-03-08T09:35:25.653Z,2.83
2019-03-08T09:38:18.320Z,3.43
2019-03-08T09:41:06.334Z,2.73
2019-03-08T09:43:55.855Z,3.10
2019-03-08T09:46:45.356Z,2.93
2019-03-08T09:49:24.536Z,3.40
2019-03-08T09:52:13.989Z,4.07
2019-03-08T09:55:05.607Z,3.13
2019-03-08T09:57:45.471Z,2.80
2019-03-08T10:00:41.336Z,3.47
2019-03-08T10:03:29.487Z,3.17
2019-03-08T10:06:31.356Z,2.77
2019-03-08T10:09:24.995Z,3.43
2019-03-08T10:12:12.975Z,3.20
2019-03-08T10:14:51.686Z,3.30
2019-03-08T10:17:37.397Z,4.10
2019-03-08T10:20:27.262Z,3.90
2019-03-08T10:23:20.117Z,3.37
2019-03-08T10:26:25.032Z,3.07
2019-03-08T10:29:08.169Z,3.60
2019-03-08T10:31:47.804Z,3.57
2019-03-08T10:34:49.209Z,3.07
2019-03-08T10:37:37.274Z,3.77
2019-03-08T10:40:20.951Z,3.87
2019-03-08T10:43:17.105Z,3.90
2019-03-08T10:46:21.874Z,3.10
2019-03-08T10:49:00.244Z,3.47
2019-03-08T10:51:52.561Z,3.33
2019-03-08T10:54:40.718Z,2.97
2019-03-08T10:57:33.126Z,3.70
2019-03-08T11:00:23.160Z,3.73
2019-03-08T11:03:11.593Z,3.80
2019-03-08T11:06:22.087Z,3.77
2019-03-08T11:09:01.886Z,3.40
2019-03-08T11:12:08.175Z,3.30
2019-03-08T11:15:01.866Z,3.70
2019-03-08T11:18:04.714Z,3.73
2019-03-08T11:20:54.308Z,3.47
2019-03-08T11:23:35.530Z,3.20
2019-03-08T11:26:37.186Z,3.87
2019-03-08T11:29:32.815Z,3.17
2019-03-08T11:35:04.427Z,2.90
2019-03-08T11:37:42.804Z,2.90
2019-03-08T11:40:46.358Z,2.70
2019-03-08T11:43:36.678Z,3.03
2019-03-08T11:46:13.058Z,3.03
2019-03-08T11:49:02.675Z,27.07
2019-03-08T11:51:47.825Z,10.97
2019-03-08T11:54:40.560Z,3.63
2019-03-08T11:57:17.787Z,2.90
2019-03-08T12:00:16.468Z,3.03
2019-03-08T12:03:00.944Z,25.27
2019-03-08T12:05:49.964Z,3.00
2019-03-08T12:08:48.410Z,3.47
2019-03-08T12:11:36.761Z,2.73
2019-03-08T12:14:29.425Z,3.20
2019-03-08T12:17:17.116Z,3.43
2019-03-08T12:20:15.977Z,3.93
2019-03-08T12:23:23.653Z,3.10
2019-03-08T12:26:07.961Z,2.83
2019-03-08T12:29:03.590Z,3.70
2019-03-08T12:32:08.055Z,2.50
2019-03-08T12:34:44.203Z,3.20
2019-03-08T12:37:39.863Z,2.53
2019-03-08T12:40:19.350Z,2.70
2019-03-08T12:43:18.190Z,2.77
2019-03-08T12:46:08.520Z,2.87
2019-03-08T12:49:04.006Z,3.37
2019-03-08T12:51:53.623Z,2.30
2019-03-08T12:54:55.380Z,2.20
2019-03-08T12:57:47.918Z,2.83
2019-03-08T13:00:40.333Z,2.40
2019-03-08T13:03:28.406Z,1.83
2019-03-08T13:06:16.630Z,2.73
2019-03-08T13:09:04.746Z,2.73
2019-03-08T13:11:37.250Z,2.00
2019-03-08T13:14:08.010Z,3.03
2019-03-08T13:16:38.634Z,2.27
2019-03-08T13:19:09.365Z,2.57
2019-03-08T13:21:40.154Z,2.63
2019-03-08T13:24:11.132Z,2.60
2019-03-08T13:26:41.823Z,1.73
2019-03-08T13:29:12.408Z,2.27
2019-03-08T13:31:43.088Z,2.37
2019-03-08T13:34:13.701Z,2.23
2019-03-08T13:36:44.414Z,2.03
2019-03-08T13:39:15.146Z,2.03
2019-03-08T13:41:45.790Z,2.37
2019-03-08T13:44:16.664Z,2.77
2019-03-08T13:46:47.961Z,11.53
2019-03-08T13:49:20.093Z,3.53
2019-03-08T13:51:51.028Z,2.13
2019-03-08T13:54:22.182Z,2.00
2019-03-08T13:56:53.103Z,1.90
2019-03-08T13:59:23.798Z,2.07
2019-03-08T14:01:54.700Z,2.20
2019-03-08T14:04:25.348Z,2.53
2019-03-08T14:06:56.018Z,1.63
2019-03-08T14:09:27.240Z,2.20
2019-03-08T14:11:57.935Z,4.10
2019-03-08T14:14:29.023Z,1.90
2019-03-08T14:16:59.711Z,2.23
2019-03-08T14:19:30.351Z,4.77
2019-03-08T14:22:01.073Z,2.00
2019-03-08T14:24:31.681Z,1.90
2019-03-08T14:27:02.463Z,1.70
2019-03-08T14:29:34.124Z,16.07
2019-03-08T14:32:08.035Z,1.73
2019-03-08T14:34:44.458Z,1.83
2019-03-08T14:37:19.865Z,2.50
2019-03-08T14:39:51.715Z,2.30
2019-03-08T14:42:54.585Z,1.70
2019-03-08T14:45:50.537Z,2.07
2019-03-08T14:48:21.581Z,2.60
2019-03-08T14:50:52.607Z,1.77
2019-03-08T14:53:23.367Z,2.03
2019-03-08T14:55:55.203Z,1.93
2019-03-08T14:58:26.902Z,2.03
2019-03-08T15:00:57.804Z,2.47
2019-03-08T15:03:28.733Z,2.30
2019-03-08T15:05:59.667Z,2.20
2019-03-08T15:08:30.661Z,2.40
2019-03-08T15:11:01.460Z,1.30
2019-03-08T15:13:32.732Z,2.37
2019-03-08T15:16:03.723Z,2.20
2019-03-08T15:18:35.073Z,2.33
2019-03-08T15:21:06.213Z,1.90
2019-03-08T15:23:37.188Z,1.83
2019-03-08T15:26:08.186Z,1.90
2019-03-08T15:28:39.113Z,1.70
2019-03-08T15:31:10.063Z,1.53
2019-03-08T15:33:41.132Z,2.17
2019-03-08T15:36:12.025Z,1.80
2019-03-08T15:38:43.566Z,1.60
2019-03-08T15:41:14.399Z,1.60
2019-03-08T15:43:47.030Z,1.90
2019-03-08T15:46:18.677Z,1.60
2019-03-08T15:48:53.177Z,2.60
2019-03-08T15:51:25.431Z,2.33
2019-03-08T15:53:56.723Z,2.33
2019-03-08T15:56:27.419Z,1.67
2019-03-08T15:58:58.392Z,1.77
2019-03-08T16:01:30.118Z,2.20
2019-03-08T16:04:01.118Z,1.43
2019-03-08T16:06:32.140Z,1.57
2019-03-08T16:09:03.678Z,1.20
2019-03-08T16:11:36.450Z,1.10
2019-03-08T16:14:08.989Z,1.70
2019-03-08T16:16:41.356Z,1.73
2019-03-08T16:19:12.164Z,1.27
2019-03-08T16:21:46.915Z,1.40
2019-03-08T16:24:15.870Z,1.23
2019-03-08T16:26:46.980Z,1.00
2019-03-08T16:29:17.640Z,1.10
2019-03-08T16:31:57.053Z,1.30
2019-03-08T16:34:27.697Z,1.20
2019-03-08T16:37:06.162Z,1.37
2019-03-08T16:39:52.850Z,1.40
2019-03-08T16:42:44.029Z,1.30
2019-03-08T16:45:35.701Z,1.40
2019-03-08T16:51:07.272Z,1.30
2019-03-08T16:53:56.568Z,1.40
2019-03-08T16:56:43.953Z,1.20
2019-03-08T16:59:32.411Z,1.43
2019-03-08T17:02:21.502Z,1.30
2019-03-08T17:05:24.188Z,1.57
2019-03-08T17:08:19.683Z,1.40
2019-03-08T17:11:07.816Z,1.90
2019-03-08T17:14:00.412Z,2.23
2019-03-08T17:16:51.712Z,1.27
2019-03-08T17:19:43.935Z,1.60
2019-03-08T17:22:42.186Z,1.50
2019-03-08T17:25:27.774Z,1.90
2019-03-08T17:28:16.176Z,1.40
2019-03-08T17:30:58.441Z,1.77
2019-03-08T17:36:40.763Z,1.50
2019-03-08T17:39:15.697Z,1.57
2019-03-08T17:42:05.350Z,1.27
2019-03-08T17:45:07.198Z,1.80
2019-03-08T17:47:44.620Z,1.40
2019-03-08T17:50:25.479Z,2.13
2019-03-08T17:53:22.588Z,1.37
2019-03-08T17:56:21.134Z,1.53
2019-03-08T17:59:23.163Z,1.40
2019-03-08T18:02:16.436Z,1.30
2019-03-08T18:05:09.419Z,1.40
2019-03-08T18:08:11.960Z,1.60
2019-03-08T18:11:04.932Z,1.97
2019-03-08T18:13:50.327Z,1.17
2019-03-08T18:16:45.764Z,1.43
2019-03-08T18:19:33.733Z,1.50
2019-03-08T18:22:22.005Z,1.37
2019-03-08T18:25:29.925Z,1.30
2019-03-08T18:31:07.099Z,1.10
2019-03-08T18:33:55.320Z,1.27
2019-03-08T18:36:40.391Z,1.60
2019-03-08T18:39:20.789Z,1.40
2019-03-08T18:42:19.381Z,1.10
2019-03-08T18:45:06.648Z,1.47
2019-03-08T18:47:55.027Z,1.93
2019-03-08T18:50:56.700Z,1.40
2019-03-08T18:53:45.285Z,1.30
2019-03-08T18:56:40.889Z,1.30
2019-03-08T18:59:26.768Z,1.10
2019-03-08T19:02:16.272Z,1.30
2019-03-08T19:05:08.542Z,0.90
2019-03-08T19:08:07.277Z,1.20
2019-03-08T19:10:56.807Z,1.40
2019-03-08T19:13:55.390Z,1.50
2019-03-08T19:16:51.232Z,1.10
2019-03-08T19:19:42.382Z,1.20
2019-03-08T19:22:31.744Z,1.60
2019-03-08T19:25:17.487Z,1.70
2019-03-08T19:28:05.666Z,1.50
2019-03-08T19:30:55.404Z,1.97
2019-03-08T19:33:44.961Z,1.30
2019-03-08T19:36:37.299Z,1.50
2019-03-08T19:39:42.237Z,1.90
2019-03-08T19:42:36.603Z,2.40
2019-03-08T19:45:22.024Z,2.03
2019-03-08T19:48:04.818Z,1.70
2019-03-08T19:50:53.191Z,1.60
2019-03-08T19:53:43.048Z,1.43
2019-03-08T19:56:32.809Z,1.30
2019-03-08T19:59:28.140Z,1.60
2019-03-08T20:02:20.910Z,3.87
2019-03-08T20:05:17.133Z,3.10
2019-03-08T20:08:16.026Z,4.60
2019-03-08T20:11:05.728Z,4.70
2019-03-08T20:14:00.130Z,4.87
2019-03-08T20:16:55.037Z,4.97
2019-03-08T20:19:50.747Z,4.57
2019-03-08T20:22:27.797Z,5.30
2019-03-08T20:25:18.061Z,5.17
2019-03-08T20:27:55.513Z,4.63
2019-03-08T20:30:43.878Z,4.20
2019-03-08T20:33:48.699Z,4.23
2019-03-08T20:36:38.670Z,4.27
2019-03-08T20:39:43.478Z,4.40
2019-03-08T20:42:34.758Z,4.07
2019-03-08T20:45:27.833Z,4.20
2019-03-08T20:47:58.585Z,4.10
2019-03-08T20:50:29.235Z,4.10
2019-03-08T20:53:00.382Z,3.13
2019-03-08T20:55:32.316Z,3.63
2019-03-08T21:00:51.966Z,5.60
2019-03-08T21:06:05.524Z,6.30
2019-03-08T21:08:36.442Z,5.73
2019-03-08T21:11:07.471Z,6.13
2019-03-08T21:13:38.380Z,6.40
2019-03-08T21:16:09.470Z,6.43
2019-03-08T21:18:40.188Z,6.60
2019-03-08T21:21:10.924Z,5.50
2019-03-08T21:23:41.612Z,6.50
2019-03-08T21:26:12.472Z,6.67
2019-03-08T21:28:43.297Z,7.30
2019-03-08T21:31:14.957Z,7.53
2019-03-08T21:33:45.709Z,7.37
2019-03-08T21:36:16.408Z,7.37
2019-03-08T21:38:47.380Z,8.07
2019-03-08T21:41:18.101Z,9.00
2019-03-08T21:43:48.800Z,6.83
2019-03-08T21:46:19.576Z,7.63
2019-03-08T21:48:50.563Z,7.57
2019-03-08T21:51:23.312Z,7.53
2019-03-08T21:53:55.360Z,5.83
2019-03-08T21:56:26.413Z,6.20
2019-03-08T21:58:57.428Z,7.63
2019-03-08T22:01:28.591Z,7.00
2019-03-08T22:04:04.435Z,6.97
2019-03-08T22:06:35.923Z,6.63
2019-03-08T22:09:26.575Z,5.57
2019-03-08T22:11:57.697Z,7.60
2019-03-08T22:14:28.437Z,6.63
2019-03-08T22:17:00.012Z,6.97
2019-03-08T22:19:31.179Z,8.60
2019-03-08T22:22:02.430Z,8.83
2019-03-08T22:24:33.383Z,9.20
2019-03-08T22:27:04.624Z,9.10
2019-03-08T22:29:35.947Z,10.33
2019-03-08T22:32:06.895Z,12.87
2019-03-08T22:34:38.139Z,12.33
2019-03-08T22:37:09.094Z,12.67
2019-03-08T22:39:40.025Z,9.10
2019-03-08T22:42:13.953Z,10.00
2019-03-08T22:44:45.132Z,11.90
2019-03-08T22:47:16.644Z,11.23
2019-03-08T22:49:47.572Z,9.47
2019-03-08T22:52:18.643Z,8.80
2019-03-08T22:54:50.028Z,7.23
2019-03-08T22:57:21.032Z,8.13
2019-03-08T22:59:51.987Z,8.37
2019-03-08T23:02:23.707Z,6.60
2019-03-08T23:04:54.717Z,8.80
2019-03-08T23:07:25.895Z,8.50
2019-03-08T23:09:57.285Z,7.07
2019-03-08T23:12:28.350Z,11.00
2019-03-08T23:14:59.305Z,11.53
2019-03-08T23:17:30.068Z,7.90
2019-03-08T23:20:01.376Z,8.93
2019-03-08T23:22:34.107Z,9.13
2019-03-08T23:25:05.287Z,6.80
2019-03-08T23:27:47.392Z,6.23
2019-03-08T23:30:31.435Z,6.47
2019-03-08T23:33:03.378Z,6.77
2019-03-08T23:35:34.743Z,6.77
2019-03-08T23:38:06.756Z,7.27
2019-03-08T23:40:38.632Z,6.77
2019-03-08T23:43:10.144Z,6.40
2019-03-08T23:45:41.348Z,7.57
2019-03-08T23:48:12.468Z,6.20
2019-03-08T23:53:33.306Z,7.70
2019-03-08T23:56:04.492Z,7.23
2019-03-08T23:58:35.271Z,7.17
